createdAt,value
2023-01-01T00:01:15.092Z,101062.47
2023-01-01T00:04:18.995Z,101055.94
2023-01-01T00:07:22.745Z,101069.59
2023-01-01T00:10:33.492Z,101067.63
2023-01-01T00:13:40.687Z,101077.59
2023-01-01T00:16:44.638Z,101080.09
2023-01-01T00:19:48.475Z,101078.50
2023-01-01T00:22:54.957Z,101080.56
2023-01-01T00:25:59.513Z,101084.22
2023-01-01T00:29:05.540Z,101083.09
2023-01-01T00:32:11.700Z,101073.06
2023-01-01T00:35:15.516Z,101079.19
2023-01-01T00:38:19.310Z,101082.19
2023-01-01T00:41:23.789Z,101085.69
2023-01-01T00:44:29.047Z,101086.47
2023-01-01T00:47:32.955Z,101093.78
2023-01-01T00:50:36.771Z,101097.84
2023-01-01T00:53:40.723Z,101101.31
2023-01-01T00:56:44.502Z,101098.63
2023-01-01T00:59:49.762Z,101100.13
2023-01-01T01:02:53.551Z,101104.84
2023-01-01T01:05:58.491Z,101102.25
2023-01-01T01:09:02.278Z,101100.84
2023-01-01T01:12:17.483Z,101097.50
2023-01-01T01:15:24.103Z,101099.06
2023-01-01T01:18:28.116Z,101095.44
2023-01-01T01:21:34.067Z,101091.66
2023-01-01T01:24:37.873Z,101084.31
2023-01-01T01:27:41.682Z,101092.97
2023-01-01T01:30:46.918Z,101095.94
2023-01-01T01:33:51.249Z,101082.91
2023-01-01T01:36:55.093Z,101084.47
2023-01-01T01:39:58.924Z,101071.38
2023-01-01T01:43:02.816Z,101080.94
2023-01-01T01:46:12.326Z,101082.97
2023-01-01T01:49:20.111Z,101077.25
2023-01-01T01:52:24.132Z,101074.16
2023-01-01T01:55:30.241Z,101074.28
2023-01-01T01:58:35.469Z,101068.72
2023-01-01T02:01:41.021Z,101068.00
2023-01-01T02:04:44.881Z,101066.97
2023-01-01T02:07:48.876Z,101074.56
2023-01-01T02:10:52.640Z,101082.69
2023-01-01T02:13:58.272Z,101080.88
2023-01-01T02:17:10.941Z,101084.97
2023-01-01T02:20:43.532Z,101083.28
2023-01-01T02:24:02.597Z,101076.41
2023-01-01T02:27:13.834Z,101078.25
2023-01-01T02:30:20.284Z,101079.19
2023-01-01T02:33:27.388Z,101073.72
2023-01-01T02:36:35.120Z,101078.16
2023-01-01T02:39:43.902Z,101085.78
2023-01-01T02:42:48.623Z,101084.38
2023-01-01T02:45:54.502Z,101084.66
2023-01-01T02:48:58.363Z,101076.69
2023-01-01T02:52:08.384Z,101077.41
2023-01-01T02:55:26.305Z,101080.13
2023-01-01T02:58:55.421Z,101080.97
2023-01-01T03:02:12.024Z,101076.09
2023-01-01T03:05:22.644Z,101073.84
2023-01-01T03:08:35.804Z,101080.75
2023-01-01T03:11:48.571Z,101077.63
2023-01-01T03:14:56.927Z,101072.09
2023-01-01T03:18:07.210Z,101071.00
2023-01-01T03:24:21.581Z,101080.22
2023-01-01T03:27:29.944Z,101080.38
2023-01-01T03:30:37.983Z,101078.69
2023-01-01T03:33:46.879Z,101081.41
2023-01-01T03:36:54.459Z,101087.19
2023-01-01T03:40:01.493Z,101089.09
2023-01-01T03:43:10.311Z,101088.53
2023-01-01T03:46:15.053Z,101086.78
2023-01-01T03:49:21.893Z,101089.22
2023-01-01T03:52:36.133Z,101088.00
2023-01-01T03:55:45.287Z,101089.75
2023-01-01T03:58:55.535Z,101098.03
2023-01-01T04:02:03.806Z,101103.22
2023-01-01T04:05:11.556Z,101105.25
2023-01-01T04:08:17.478Z,101101.28
2023-01-01T04:11:44.199Z,101086.78
2023-01-01T04:14:47.998Z,101095.91
2023-01-01T04:17:52.146Z,101087.06
2023-01-01T04:20:57.257Z,101092.28
2023-01-01T04:24:01.031Z,101089.19
2023-01-01T04:27:04.817Z,101096.75
2023-01-01T04:30:11.808Z,101097.50
2023-01-01T04:33:15.504Z,101093.44
2023-01-01T04:36:20.987Z,101092.59
2023-01-01T04:39:24.627Z,101096.41
2023-01-01T04:42:28.272Z,101100.31
2023-01-01T04:45:31.933Z,101094.78
2023-01-01T04:48:37.460Z,101091.25
2023-01-01T04:51:42.652Z,101097.78
2023-01-01T04:54:46.335Z,101081.41
2023-01-01T04:57:50.114Z,101091.47
2023-01-01T05:00:53.791Z,101095.69
2023-01-01T05:03:58.170Z,101096.53
2023-01-01T05:07:03.272Z,101101.47
2023-01-01T05:10:07.980Z,101098.69
2023-01-01T05:13:11.742Z,101110.78
2023-01-01T05:16:17.123Z,101113.06
2023-01-01T05:19:20.810Z,101115.56
2023-01-01T05:22:25.825Z,101114.41
2023-01-01T05:25:29.507Z,101120.50
2023-01-01T05:28:33.095Z,101124.50
2023-01-01T05:31:37.663Z,101122.84
2023-01-01T05:34:41.300Z,101125.94
2023-01-01T05:37:46.518Z,101137.41
2023-01-01T05:40:50.161Z,101136.34
2023-01-01T05:43:54.597Z,101137.41
2023-01-01T05:46:58.519Z,101139.44
2023-01-01T05:53:07.123Z,101144.53
2023-01-01T05:56:10.805Z,101134.78
2023-01-01T05:59:14.638Z,101134.56
2023-01-01T06:02:18.638Z,101143.63
2023-01-01T06:05:22.707Z,101132.63
2023-01-01T06:08:27.751Z,101134.31
2023-01-01T06:11:32.323Z,101145.31
2023-01-01T06:14:35.880Z,101137.00
2023-01-01T06:17:39.505Z,101135.38
2023-01-01T06:20:43.174Z,101136.50
2023-01-01T06:23:49.828Z,101133.06
2023-01-01T06:26:53.686Z,101126.63
2023-01-01T06:29:58.058Z,101124.72
2023-01-01T06:33:01.827Z,101130.31
2023-01-01T06:36:08.258Z,101127.59
2023-01-01T06:39:13.515Z,101135.78
2023-01-01T06:42:17.765Z,101144.22
2023-01-01T06:45:21.509Z,101142.34
2023-01-01T06:48:25.261Z,101143.38
2023-01-01T06:51:30.683Z,101141.28
2023-01-01T06:54:35.922Z,101154.94
2023-01-01T06:57:39.797Z,101145.50
2023-01-01T07:00:43.783Z,101156.28
2023-01-01T07:03:52.983Z,101148.47
2023-01-01T07:06:56.722Z,101148.66
2023-01-01T07:10:01.992Z,101147.28
2023-01-01T07:13:06.483Z,101151.38
2023-01-01T07:16:13.486Z,101149.94
2023-01-01T07:19:17.536Z,101152.69
2023-01-01T07:22:21.312Z,101154.00
2023-01-01T07:25:26.807Z,101148.09
2023-01-01T07:28:30.496Z,101157.25
2023-01-01T07:31:34.287Z,101154.66
2023-01-01T07:34:38.076Z,101161.22
2023-01-01T07:37:41.903Z,101159.13
2023-01-01T07:40:47.267Z,101158.97
2023-01-01T07:43:51.258Z,101155.75
2023-01-01T07:47:04.085Z,101164.94
2023-01-01T07:50:08.520Z,101160.16
2023-01-01T07:53:12.539Z,101177.72
2023-01-01T07:56:17.737Z,101175.97
2023-01-01T07:59:21.462Z,101182.47
2023-01-01T08:02:26.537Z,101185.34
2023-01-01T08:05:30.359Z,101180.81
2023-01-01T08:08:34.177Z,101188.94
2023-01-01T08:11:39.464Z,101195.41
2023-01-01T08:14:43.224Z,101199.31
2023-01-01T08:17:47.539Z,101197.84
2023-01-01T08:20:51.416Z,101203.47
2023-01-01T08:23:55.455Z,101212.53
2023-01-01T08:27:00.709Z,101205.25
2023-01-01T08:30:04.476Z,101206.53
2023-01-01T08:33:08.148Z,101207.94
2023-01-01T08:36:14.678Z,101203.94
2023-01-01T08:39:18.481Z,101209.72
2023-01-01T08:42:23.945Z,101209.69
2023-01-01T08:45:27.635Z,101209.16
2023-01-01T08:48:31.448Z,101194.03
2023-01-01T08:51:35.325Z,101197.66
2023-01-01T08:54:39.005Z,101190.59
2023-01-01T08:57:44.307Z,101189.75
2023-01-01T09:00:47.952Z,101189.09
2023-01-01T09:03:51.944Z,101188.06
2023-01-01T09:06:55.660Z,101181.94
2023-01-01T09:09:59.488Z,101176.16
2023-01-01T09:13:04.591Z,101174.56
2023-01-01T09:16:09.227Z,101170.44
2023-01-01T09:19:13.040Z,101159.25
2023-01-01T09:22:16.904Z,101159.00
2023-01-01T09:25:20.937Z,101150.09
2023-01-01T09:28:27.427Z,101149.72
2023-01-01T09:31:31.286Z,101142.22
2023-01-01T09:34:35.084Z,101135.31
2023-01-01T09:37:38.933Z,101137.75
2023-01-01T09:40:54.678Z,101130.66
2023-01-01T09:44:09.727Z,101125.84
2023-01-01T09:47:27.643Z,101120.75
2023-01-01T09:50:36.394Z,101117.16
2023-01-01T09:53:44.490Z,101121.09
2023-01-01T09:56:49.800Z,101110.00
2023-01-01T09:59:55.231Z,101113.63
2023-01-01T10:03:26.720Z,101120.31
2023-01-01T10:06:33.348Z,101110.06
2023-01-01T10:09:46.722Z,101115.06
2023-01-01T10:12:58.926Z,101100.38
2023-01-01T10:16:15.998Z,101106.66
2023-01-01T10:19:29.442Z,101101.31
2023-01-01T10:22:41.827Z,101092.00
2023-01-01T10:25:46.510Z,101091.69
2023-01-01T10:29:02.498Z,101087.09
2023-01-01T10:32:19.798Z,101082.56
2023-01-01T10:35:31.471Z,101089.25
2023-01-01T10:38:38.017Z,101088.38
2023-01-01T10:41:41.792Z,101081.41
2023-01-01T10:44:45.831Z,101080.03
2023-01-01T10:48:14.033Z,101068.50
2023-01-01T10:51:21.207Z,101066.56
2023-01-01T10:54:35.332Z,101056.06
2023-01-01T10:57:40.724Z,101054.16
2023-01-01T11:00:44.609Z,101057.53
2023-01-01T11:03:58.577Z,101057.78
2023-01-01T11:07:02.459Z,101050.53
2023-01-01T11:10:08.845Z,101049.41
2023-01-01T11:13:21.902Z,101046.25
2023-01-01T11:16:26.629Z,101042.31
2023-01-01T11:19:36.779Z,101046.81
2023-01-01T11:22:43.322Z,101039.91
2023-01-01T11:26:03.202Z,101035.75
2023-01-01T11:29:22.679Z,101028.69
2023-01-01T11:32:34.917Z,101024.06
2023-01-01T11:35:51.697Z,101018.06
2023-01-01T11:39:21.240Z,101014.47
2023-01-01T11:42:27.830Z,101015.28
2023-01-01T11:45:37.760Z,101010.09
2023-01-01T11:48:45.102Z,101009.53
2023-01-01T11:51:50.315Z,101000.91
2023-01-01T11:54:55.030Z,101008.09
2023-01-01T11:58:05.810Z,101003.78
2023-01-01T12:01:16.028Z,100990.28
2023-01-01T12:04:24.171Z,100981.16
2023-01-01T12:07:33.378Z,100984.88
2023-01-01T12:10:46.399Z,100984.75
2023-01-01T12:13:55.230Z,100986.16
2023-01-01T12:17:03.408Z,100983.38
2023-01-01T12:20:15.235Z,100984.97
2023-01-01T12:23:21.192Z,100977.00
2023-01-01T12:26:28.260Z,100971.41
2023-01-01T12:30:06.010Z,100962.59
2023-01-01T12:33:34.009Z,100963.75
2023-01-01T12:36:46.864Z,100964.81
2023-01-01T12:40:25.063Z,100960.78
2023-01-01T12:43:37.428Z,100959.63
2023-01-01T12:46:51.494Z,100957.81
2023-01-01T12:50:10.852Z,100957.00
2023-01-01T12:53:28.368Z,100958.38
2023-01-01T12:56:37.341Z,100963.59
2023-01-01T12:59:47.147Z,100955.16
2023-01-01T13:02:54.637Z,100960.84
2023-01-01T13:05:59.131Z,100950.63
2023-01-01T13:09:09.338Z,100960.50
2023-01-01T13:12:19.141Z,100954.16
2023-01-01T13:15:51.373Z,100955.22
2023-01-01T13:18:59.034Z,100957.69
2023-01-01T13:22:39.292Z,100960.41
2023-01-01T13:25:43.058Z,100959.19
2023-01-01T13:29:26.534Z,100963.50
2023-01-01T13:32:50.337Z,100967.59
2023-01-01T13:36:32.144Z,100970.66
2023-01-01T13:39:56.095Z,100970.34
2023-01-01T13:43:28.322Z,100977.38
2023-01-01T13:46:44.377Z,100974.41
2023-01-01T13:50:06.054Z,100975.78
2023-01-01T13:53:33.602Z,100974.03
2023-01-01T13:56:45.491Z,100970.50
2023-01-01T14:00:06.994Z,100972.75
2023-01-01T14:03:32.848Z,100974.53
2023-01-01T14:06:39.704Z,100976.88
2023-01-01T14:09:43.455Z,100976.66
2023-01-01T14:12:47.267Z,100977.97
2023-01-01T14:15:56.712Z,100974.22
2023-01-01T14:19:03.602Z,100969.56
2023-01-01T14:22:09.148Z,100965.03
2023-01-01T14:25:18.333Z,100972.25
2023-01-01T14:28:27.324Z,100971.84
2023-01-01T14:31:33.393Z,100972.28
2023-01-01T14:34:38.666Z,100973.13
2023-01-01T14:37:42.494Z,100982.97
2023-01-01T14:40:47.675Z,100976.06
2023-01-01T14:43:53.922Z,100978.69
2023-01-01T14:46:58.588Z,100985.22
2023-01-01T14:50:06.833Z,100985.50
2023-01-01T14:53:18.972Z,100984.38
2023-01-01T14:56:25.370Z,100996.66
2023-01-01T14:59:32.351Z,100987.53
2023-01-01T15:02:40.528Z,100985.47
2023-01-01T15:05:47.189Z,100984.47
2023-01-01T15:08:51.802Z,100990.69
2023-01-01T15:11:59.354Z,100985.28
2023-01-01T15:15:03.767Z,100982.38
2023-01-01T15:18:07.787Z,100979.84
2023-01-01T15:21:25.461Z,100983.41
2023-01-01T15:24:30.766Z,100978.72
2023-01-01T15:27:36.926Z,100990.00
2023-01-01T15:30:40.854Z,100994.78
2023-01-01T15:33:49.159Z,100988.44
2023-01-01T15:36:56.112Z,100995.19
2023-01-01T15:40:02.167Z,100993.31
2023-01-01T15:43:25.391Z,101003.97
2023-01-01T15:46:32.609Z,101003.06
2023-01-01T15:49:36.588Z,101005.78
2023-01-01T15:52:48.056Z,101001.91
2023-01-01T15:55:57.591Z,101017.75
2023-01-01T15:59:09.205Z,101011.25
2023-01-01T16:02:18.426Z,101018.81
2023-01-01T16:05:25.143Z,101010.47
2023-01-01T16:08:30.526Z,101014.19
2023-01-01T16:11:34.339Z,101006.69
2023-01-01T16:14:38.159Z,101013.91
2023-01-01T16:17:42.013Z,101016.09
2023-01-01T16:20:46.149Z,101012.75
2023-01-01T16:23:51.467Z,101008.72
2023-01-01T16:26:55.272Z,101012.06
2023-01-01T16:29:59.116Z,101020.34
2023-01-01T16:33:03.059Z,101019.81
2023-01-01T16:36:07.584Z,101014.22
2023-01-01T16:39:13.346Z,101020.03
2023-01-01T16:42:17.142Z,101023.53
2023-01-01T16:45:21.059Z,101018.13
2023-01-01T16:48:25.008Z,101024.31
2023-01-01T16:51:31.672Z,101027.22
2023-01-01T16:54:36.906Z,101024.59
2023-01-01T16:57:41.040Z,101031.75
2023-01-01T17:00:44.843Z,101041.31
2023-01-01T17:03:48.612Z,101043.41
2023-01-01T17:06:52.480Z,101049.84
2023-01-01T17:09:57.790Z,101051.28
2023-01-01T17:13:03.124Z,101045.09
2023-01-01T17:16:08.973Z,101047.50
2023-01-01T17:19:15.488Z,101054.16
2023-01-01T17:22:21.558Z,101058.22
2023-01-01T17:25:26.776Z,101064.13
2023-01-01T17:28:30.595Z,101064.25
2023-01-01T17:31:34.477Z,101056.28
2023-01-01T17:34:38.230Z,101058.06
2023-01-01T17:37:42.015Z,101058.91
2023-01-01T17:40:47.553Z,101062.72
2023-01-01T17:43:53.074Z,101063.91
2023-01-01T17:46:57.505Z,101067.66
2023-01-01T17:50:01.272Z,101065.19
2023-01-01T17:53:10.604Z,101069.91
2023-01-01T17:56:20.808Z,101072.22
2023-01-01T17:59:24.720Z,101073.16
2023-01-01T18:02:28.679Z,101075.78
2023-01-01T18:05:32.544Z,101071.94
2023-01-01T18:08:36.246Z,101071.25
2023-01-01T18:11:42.040Z,101070.81
2023-01-01T18:14:45.690Z,101067.09
2023-01-01T18:17:49.464Z,101066.59
2023-01-01T18:20:53.185Z,101063.59
2023-01-01T18:23:59.091Z,101065.41
2023-01-01T18:27:04.401Z,101065.88
2023-01-01T18:30:08.990Z,101062.94
2023-01-01T18:33:13.330Z,101063.84
2023-01-01T18:36:19.009Z,101067.41
2023-01-01T18:39:24.127Z,101068.47
2023-01-01T18:42:40.481Z,101068.47
2023-01-01T18:45:44.240Z,101074.66
2023-01-01T18:48:48.015Z,101074.44
2023-01-01T18:51:56.556Z,101083.19
2023-01-01T18:55:14.222Z,101073.31
2023-01-01T18:58:22.655Z,101081.41
2023-01-01T19:01:26.535Z,101069.03
2023-01-01T19:04:30.384Z,101078.50
2023-01-01T19:07:34.174Z,101070.38
2023-01-01T19:10:41.260Z,101073.44
2023-01-01T19:13:46.394Z,101076.38
2023-01-01T19:16:52.605Z,101074.03
2023-01-01T19:19:56.595Z,101072.13
2023-01-01T19:23:00.576Z,101068.28
2023-01-01T19:26:07.217Z,101069.78
2023-01-01T19:29:17.205Z,101064.44
2023-01-01T19:32:22.202Z,101064.91
2023-01-01T19:35:25.965Z,101067.13
2023-01-01T19:38:29.836Z,101076.56
2023-01-01T19:41:33.973Z,101075.34
2023-01-01T19:44:39.235Z,101071.38
2023-01-01T19:47:43.720Z,101079.16
2023-01-01T19:50:48.979Z,101075.38
2023-01-01T19:53:52.905Z,101072.69
2023-01-01T19:56:57.515Z,101073.94
2023-01-01T20:00:04.250Z,101074.16
2023-01-01T20:06:39.510Z,101071.72
2023-01-01T20:09:43.316Z,101075.78
2023-01-01T20:12:47.495Z,101070.38
2023-01-01T20:15:52.993Z,101073.59
2023-01-01T20:18:56.855Z,101070.13
2023-01-01T20:22:20.328Z,101066.81
2023-01-01T20:25:24.015Z,101075.56
2023-01-01T20:28:45.090Z,101073.47
2023-01-01T20:31:52.215Z,101078.25
2023-01-01T20:34:56.228Z,101079.94
2023-01-01T20:37:58.961Z,101075.47
2023-01-01T20:41:22.870Z,101084.03
2023-01-01T20:44:26.737Z,101082.84
2023-01-01T20:47:31.860Z,101092.28
2023-01-01T20:50:35.636Z,101082.06
2023-01-01T20:53:39.326Z,101092.78
2023-01-01T20:56:43.087Z,101094.53
2023-01-01T20:59:46.723Z,101097.41
2023-01-01T21:02:52.070Z,101096.97
2023-01-01T21:05:55.978Z,101091.22
2023-01-01T21:08:59.666Z,101088.91
2023-01-01T21:12:03.543Z,101094.03
2023-01-01T21:15:15.563Z,101090.81
2023-01-01T21:18:20.851Z,101101.66
2023-01-01T21:21:26.165Z,101102.59
2023-01-01T21:24:34.398Z,101106.47
2023-01-01T21:27:39.819Z,101107.50
2023-01-01T21:30:52.016Z,101108.22
2023-01-01T21:33:57.357Z,101106.16
2023-01-01T21:37:07.594Z,101107.09
2023-01-01T21:40:50.224Z,101104.91
2023-01-01T21:43:56.140Z,101105.00
2023-01-01T21:47:02.005Z,101106.44
2023-01-01T21:50:23.403Z,101106.84
2023-01-01T21:53:31.734Z,101105.47
2023-01-01T21:56:38.603Z,101114.22
2023-01-01T21:59:45.242Z,101104.19
2023-01-01T22:02:49.735Z,101106.53
2023-01-01T22:05:59.254Z,101105.28
2023-01-01T22:09:04.016Z,101107.69
2023-01-01T22:12:21.251Z,101099.66
2023-01-01T22:15:31.802Z,101096.09
2023-01-01T22:18:40.067Z,101094.53
2023-01-01T22:21:45.837Z,101104.31
2023-01-01T22:24:55.178Z,101102.06
2023-01-01T22:27:59.280Z,101105.94
2023-01-01T22:31:04.138Z,101099.69
2023-01-01T22:34:15.787Z,101102.31
2023-01-01T22:37:22.917Z,101100.78
2023-01-01T22:40:30.723Z,101091.84
2023-01-01T22:43:38.668Z,101093.19
2023-01-01T22:46:42.895Z,101093.56
2023-01-01T22:49:51.548Z,101099.06
2023-01-01T22:52:56.829Z,101087.47
2023-01-01T22:56:01.756Z,101077.28
2023-01-01T22:59:05.404Z,101086.69
2023-01-01T23:02:09.334Z,101083.09
2023-01-01T23:05:13.859Z,101074.66
2023-01-01T23:08:19.303Z,101065.22
2023-01-01T23:11:23.223Z,101062.63
2023-01-01T23:14:44.373Z,101066.06
2023-01-01T23:17:48.004Z,101065.19
2023-01-01T23:20:51.734Z,101063.84
2023-01-01T23:23:59.009Z,101060.03
2023-01-01T23:27:04.244Z,101055.16
2023-01-01T23:30:09.708Z,101060.41
2023-01-01T23:33:14.036Z,101069.63
2023-01-01T23:36:17.730Z,101061.72
2023-01-01T23:39:23.115Z,101062.81
2023-01-01T23:42:26.691Z,101060.38
2023-01-01T23:45:30.425Z,101054.91
2023-01-01T23:48:34.057Z,101058.50
2023-01-01T23:51:39.509Z,101061.31
2023-01-01T23:54:44.467Z,101064.38
2023-01-01T23:57:48.012Z,101062.22
